ADDS METAR Data INFO
IDs: Format: Raw Decoded Include TAF

Data at: 0212 UTC 24 Nov 2017

METAR for:KS52 (Methow Valley State, WA, US)
Text:KS52 240155Z AUTO 02005KT 10SM CLR 02/02 A2977 RMK AO2 T00210017
Temperature: 2.1°C ( 36°F)
Dewpoint: 1.7°C ( 35°F) [RH = 97%]
Pressure (altimeter):29.77 inches Hg (1008.2 mb)
Winds:from the NNE (20 degrees) at 6 MPH (5 knots; 2.6 m/s)
Visibility:10 or more sm (16+ km)
Ceiling:at least 12,000 feet AGL
Clouds:sky clear below 12,000 feet AGL
QC Flag:automated observation with no human augmentation